W96 weather

New Kent County Airport
Quinton, Virginia, United States

Public forecast

Using degrees Fahrenheit for public forecast. Weather courtesy of forecast.io.

Current aviation weather report (METAR) for New Kent County Airport

Retrieved UTC (0 seconds ago):

Closest aviation forecast (TAF) to New Kent County Airport

Closest forecast is Richmond International Airport, 9.3 nm (17.1 km) W. Retrieved 2019/10/23 06:51 UTC (3 hours ago):

TAF COR KRIC 230549Z 2306/2406 32005KT P6SM BKN005 FM231000 30005KT P6SM SCT006 FM231500 30007KT P6SM SKC